Noorvik, Alaska
Current Conditions -  °F | °C
As of 2:58 PM on Saturday 25 Oct 2014 (Local Time) from PFNO Reporting Station
Overcast Overcast  
Wind Chill: 21°   Ceiling: 1800
Heat Index: 34°   Visibility: 10mi
Dew Point: 34°   Wind: 26mph
Humidity: 100%   Direction: 170°S
Pressure: 29.56"   Gusts: NA
Location:  66.84°N, 161.04°W
Report Text: PFNO 252258Z AUTO 17023KT 10SM OVC018 01/01 A2956 RMK AO2 PK WND 14028/2205 RAB43E46SNE43 SLP013 P0000 T00110011 FZRANO
Loading
Personal Weather Stations






























Interactive Weather Map
Tropical Storm Tracking
New forecast layout! Learn more

10-Day Weather Forecast

Advertisements
Track Severe Weather on mobile